Greenwich, Ohio
Current Conditions -  °F | °C
As of 4:52 AM on Thursday 29 Jan 2015 (Local Time) from KMFD Reporting Station
Broken Clouds Broken Clouds  
Wind Chill: 13°   Ceiling: 9000
Heat Index: 27°   Visibility: 10mi
Dew Point: 18°   Wind: 22mph
Humidity: 69%   Direction: 150°SSE
Pressure: 29.94"   Gusts: NA
Location:  41.03°N, 82.52°W
Report Text: KMFD 290952Z AUTO 15019KT 10SM BKN090 M03/M08 A2994 RMK AO2 PK WND 16026/0948 SLP154 T10281078
Loading
Personal Weather Stations






























Interactive Weather Map New forecast layout! Learn more

10-Day Weather Forecast

Advertisements
Track Severe Weather on mobile